createdAt,value
2023-02-05T00:01:50.364Z,100725.16
2023-02-05T00:04:19.816Z,100725.19
2023-02-05T00:06:48.103Z,100672.06
2023-02-05T00:09:16.920Z,100695.25
2023-02-05T00:11:45.116Z,100735.59
2023-02-05T00:14:13.000Z,100747.63
2023-02-05T00:16:41.221Z,100747.59
2023-02-05T00:19:09.409Z,100752.78
2023-02-05T00:21:37.648Z,100751.13
2023-02-05T00:24:07.783Z,100754.63
2023-02-05T00:26:36.441Z,100753.69
2023-02-05T00:29:05.313Z,100744.22
2023-02-05T00:31:34.074Z,100645.06
2023-02-05T00:34:03.875Z,100753.88
2023-02-05T00:36:32.706Z,100710.09
2023-02-05T00:39:00.821Z,100759.91
2023-02-05T00:41:29.434Z,100760.84
2023-02-05T00:43:58.045Z,100769.38
2023-02-05T00:46:26.188Z,100767.72
2023-02-05T00:48:54.837Z,100705.06
2023-02-05T00:51:23.316Z,100763.44
2023-02-05T00:53:51.903Z,100766.00
2023-02-05T00:56:20.295Z,100701.75
2023-02-05T00:58:50.121Z,100749.69
2023-02-05T01:01:18.514Z,100757.47
2023-02-05T01:03:47.419Z,100759.06
2023-02-05T01:06:15.748Z,100754.88
2023-02-05T01:08:43.906Z,100753.28
2023-02-05T01:11:12.241Z,100760.97
2023-02-05T01:13:40.395Z,100743.66
2023-02-05T01:16:10.717Z,100756.59
2023-02-05T01:18:39.730Z,100676.94
2023-02-05T01:21:07.805Z,100755.88
2023-02-05T01:23:36.001Z,100755.94
2023-02-05T01:26:04.875Z,100766.38
2023-02-05T01:28:32.996Z,100751.72
2023-02-05T01:31:01.871Z,100763.72
2023-02-05T01:33:30.727Z,100707.09
2023-02-05T01:35:58.921Z,100755.19
2023-02-05T01:38:27.320Z,100761.16
2023-02-05T01:40:55.578Z,100704.59
2023-02-05T01:43:23.984Z,100762.94
2023-02-05T01:46:19.446Z,100713.13
2023-02-05T01:48:53.597Z,100704.59
2023-02-05T01:51:23.949Z,100760.28
2023-02-05T01:53:53.929Z,100707.06
2023-02-05T01:56:33.746Z,100707.06
2023-02-05T01:59:12.025Z,100767.13
2023-02-05T02:01:42.334Z,100773.16
2023-02-05T02:04:12.960Z,100768.03
2023-02-05T02:06:41.198Z,100716.63
2023-02-05T02:09:09.457Z,100780.25
2023-02-05T02:11:43.807Z,100716.63
2023-02-05T02:14:13.159Z,100779.38
2023-02-05T02:16:42.014Z,100731.22
2023-02-05T02:19:26.204Z,100731.28
2023-02-05T02:22:11.877Z,100779.25
2023-02-05T02:25:19.708Z,100770.59
2023-02-05T02:28:25.592Z,100767.97
2023-02-05T02:31:28.126Z,100773.94
2023-02-05T02:34:41.155Z,100599.03
2023-02-05T02:37:18.211Z,100724.28
2023-02-05T02:39:58.162Z,100783.41
2023-02-05T02:42:44.044Z,100773.94
2023-02-05T02:45:14.745Z,100787.66
2023-02-05T02:47:52.659Z,100779.06
2023-02-05T02:50:35.661Z,100771.41
2023-02-05T02:53:22.346Z,100738.94
2023-02-05T02:55:52.279Z,100789.47
2023-02-05T02:58:36.745Z,100776.59
2023-02-05T03:01:08.403Z,100781.69
2023-02-05T03:03:46.242Z,100786.03
2023-02-05T03:06:16.740Z,100736.41
2023-02-05T03:08:53.330Z,100754.44
2023-02-05T03:11:21.433Z,100796.50
2023-02-05T03:13:49.986Z,100733.84
2023-02-05T03:16:22.792Z,100754.47
2023-02-05T03:18:51.471Z,100734.78
2023-02-05T03:21:34.760Z,100759.69
2023-02-05T03:24:02.815Z,100792.22
2023-02-05T03:26:38.612Z,100796.47
2023-02-05T03:29:31.216Z,100787.84
2023-02-05T03:32:30.022Z,100789.50
2023-02-05T03:35:31.573Z,100810.31
2023-02-05T03:38:16.328Z,100810.34
2023-02-05T03:40:58.211Z,100810.34
2023-02-05T03:43:53.760Z,100800.06
2023-02-05T03:46:45.461Z,100684.38
2023-02-05T03:49:21.262Z,100778.50
2023-02-05T03:52:27.349Z,100780.09
2023-02-05T03:55:21.904Z,100770.66
2023-02-05T03:58:04.680Z,100726.03
2023-02-05T04:00:33.834Z,100775.84
2023-02-05T04:03:03.819Z,100781.75
2023-02-05T04:05:33.855Z,100758.59
2023-02-05T04:08:04.801Z,100722.56
2023-02-05T04:10:39.533Z,100766.28
2023-02-05T04:13:07.898Z,100785.34
2023-02-05T04:15:37.578Z,100721.84
2023-02-05T04:18:09.759Z,100719.25
2023-02-05T04:20:38.155Z,100705.41
2023-02-05T04:23:08.678Z,100763.81
2023-02-05T04:25:39.553Z,100775.94
2023-02-05T04:28:12.852Z,100772.44
2023-02-05T04:30:41.213Z,100752.72
2023-02-05T04:33:11.321Z,100766.41
2023-02-05T04:35:40.634Z,100737.34
2023-02-05T04:38:08.826Z,100666.16
2023-02-05T04:40:37.216Z,100738.88
2023-02-05T04:43:05.046Z,100760.28
2023-02-05T04:45:33.779Z,100774.91
2023-02-05T04:48:02.298Z,100777.59
2023-02-05T04:50:30.375Z,100722.81
2023-02-05T04:52:58.358Z,100786.28
2023-02-05T04:55:26.561Z,100790.56
2023-02-05T04:57:54.400Z,100791.38
2023-02-05T05:00:23.124Z,100793.06
2023-02-05T05:02:51.166Z,100771.72
2023-02-05T05:05:19.660Z,100789.69
2023-02-05T05:07:47.718Z,100783.69
2023-02-05T05:10:16.024Z,100733.91
2023-02-05T05:12:43.919Z,100789.63
2023-02-05T05:15:12.197Z,100788.84
2023-02-05T05:17:40.609Z,100778.53
2023-02-05T05:20:09.549Z,100781.94
2023-02-05T05:22:37.862Z,100734.81
2023-02-05T05:25:06.261Z,100789.78
2023-02-05T05:27:34.470Z,100760.69
2023-02-05T05:30:02.679Z,100802.69
2023-02-05T05:32:30.760Z,100756.44
2023-02-05T05:34:58.778Z,100795.97
2023-02-05T05:37:26.948Z,100777.97
2023-02-05T05:40:13.618Z,100711.13
2023-02-05T05:43:00.598Z,100787.53
2023-02-05T05:45:28.828Z,100813.38
2023-02-05T05:47:56.996Z,100765.38
2023-02-05T05:50:25.097Z,100828.19
2023-02-05T05:52:53.273Z,100823.00
2023-02-05T05:55:21.642Z,100814.41
2023-02-05T05:57:49.853Z,100832.47
2023-02-05T06:00:18.464Z,100838.50
2023-02-05T06:02:46.473Z,100821.41
2023-02-05T06:05:14.722Z,100789.72
2023-02-05T06:07:42.608Z,100828.19
2023-02-05T06:10:10.991Z,100793.03
2023-02-05T06:12:39.068Z,100848.75
2023-02-05T06:15:07.852Z,100788.72
2023-02-05T06:17:36.022Z,100842.81
2023-02-05T06:20:06.137Z,100787.88
2023-02-05T06:22:34.113Z,100819.81
2023-02-05T06:25:02.500Z,100833.47
2023-02-05T06:27:30.832Z,100841.28
2023-02-05T06:29:58.722Z,100854.13
2023-02-05T06:32:27.415Z,100860.19
2023-02-05T06:34:55.806Z,100812.28
2023-02-05T06:37:34.214Z,100869.81
2023-02-05T06:40:15.839Z,100870.03
2023-02-05T06:42:45.255Z,100897.69
2023-02-05T06:45:13.522Z,100838.28
2023-02-05T06:47:41.977Z,100909.50
2023-02-05T06:50:10.511Z,100898.34
2023-02-05T06:52:38.863Z,100923.22
2023-02-05T06:55:07.618Z,100915.50
2023-02-05T06:57:36.129Z,100873.44
2023-02-05T07:00:09.093Z,100930.13
2023-02-05T07:02:37.409Z,100929.13
2023-02-05T07:05:05.784Z,100932.66
2023-02-05T07:07:34.605Z,100931.69
2023-02-05T07:10:03.405Z,100926.47
2023-02-05T07:12:32.386Z,100910.91
2023-02-05T07:15:00.627Z,100941.81
2023-02-05T07:17:28.970Z,100894.47
2023-02-05T07:19:58.932Z,100936.78
2023-02-05T07:22:27.272Z,100941.25
2023-02-05T07:24:55.688Z,100916.41
2023-02-05T07:27:24.394Z,100918.94
2023-02-05T07:29:52.559Z,100946.88
2023-02-05T07:32:20.781Z,100861.13
2023-02-05T07:34:48.960Z,100944.66
2023-02-05T07:37:19.087Z,100896.34
2023-02-05T07:39:48.736Z,100951.13
2023-02-05T07:42:17.395Z,100934.72
2023-02-05T07:44:52.231Z,100935.50
2023-02-05T07:47:21.208Z,100940.63
2023-02-05T07:49:49.144Z,100896.97
2023-02-05T07:52:17.350Z,100898.59
2023-02-05T07:54:45.777Z,100931.00
2023-02-05T07:57:13.871Z,100959.63
2023-02-05T07:59:42.244Z,100944.97
2023-02-05T08:02:12.265Z,100942.75
2023-02-05T08:04:40.685Z,100919.84
2023-02-05T08:07:12.244Z,100901.34
2023-02-05T08:09:41.025Z,100904.63
2023-02-05T08:12:09.216Z,100842.47
2023-02-05T08:14:39.202Z,100897.56
2023-02-05T08:17:08.179Z,100845.03
2023-02-05T08:19:37.003Z,100907.63
2023-02-05T08:22:05.257Z,100884.72
2023-02-05T08:24:33.609Z,100907.81
2023-02-05T08:27:01.858Z,100906.06
2023-02-05T08:29:30.576Z,100896.41
2023-02-05T08:32:00.390Z,100900.03
2023-02-05T08:34:29.406Z,100895.69
2023-02-05T08:36:58.286Z,100914.25
2023-02-05T08:39:26.944Z,100898.25
2023-02-05T08:41:57.052Z,100867.84
2023-02-05T08:44:25.816Z,100856.63
2023-02-05T08:46:54.534Z,100833.34
2023-02-05T08:49:23.354Z,100833.34
2023-02-05T08:51:52.019Z,100890.69
2023-02-05T08:54:20.714Z,100862.16
2023-02-05T08:56:51.570Z,100857.50
2023-02-05T08:59:22.415Z,100899.28
2023-02-05T09:01:50.836Z,100879.84
2023-02-05T09:04:23.870Z,100851.50
2023-02-05T09:06:52.582Z,100889.41
2023-02-05T09:09:20.779Z,100872.09
2023-02-05T09:11:49.863Z,100903.66
2023-02-05T09:14:18.130Z,100888.88
2023-02-05T09:16:46.451Z,100879.59
2023-02-05T09:19:14.550Z,100878.78
2023-02-05T09:21:42.693Z,100829.75
2023-02-05T09:24:10.967Z,100884.53
2023-02-05T09:26:39.423Z,100889.88
2023-02-05T09:29:07.735Z,100879.28
2023-02-05T09:31:35.961Z,100914.84
2023-02-05T09:34:04.672Z,100902.09
2023-02-05T09:36:33.447Z,100895.75
2023-02-05T09:39:15.024Z,100881.25
2023-02-05T09:42:28.259Z,100892.72
2023-02-05T09:45:35.622Z,100841.19
2023-02-05T09:48:23.514Z,100884.28
2023-02-05T09:50:52.408Z,100883.47
2023-02-05T09:53:22.813Z,100792.63
2023-02-05T09:55:51.250Z,100864.72
2023-02-05T09:58:28.980Z,100894.41
2023-02-05T10:01:09.012Z,100859.28
2023-02-05T10:03:50.290Z,100868.84
2023-02-05T10:06:49.588Z,100874.16
2023-02-05T10:09:26.163Z,100877.44
2023-02-05T10:12:06.956Z,100849.06
2023-02-05T10:15:03.340Z,100842.19
2023-02-05T10:17:53.625Z,100869.19
2023-02-05T10:20:38.253Z,100837.25
2023-02-05T10:23:44.673Z,100782.94
2023-02-05T10:26:21.047Z,100787.69
2023-02-05T10:29:22.735Z,100841.81
2023-02-05T10:32:24.754Z,100843.84
2023-02-05T10:35:25.273Z,100874.44
2023-02-05T10:37:57.761Z,100834.28
2023-02-05T10:40:39.566Z,100896.69
2023-02-05T10:43:39.907Z,100866.63
2023-02-05T10:46:14.563Z,100829.97
2023-02-05T10:49:01.621Z,100921.13
2023-02-05T10:51:43.838Z,100901.88
2023-02-05T10:54:33.975Z,100881.69
2023-02-05T10:57:02.507Z,100908.03
2023-02-05T10:59:36.702Z,100794.22
2023-02-05T11:02:09.996Z,100849.81
2023-02-05T11:04:55.640Z,100903.41
2023-02-05T11:07:44.905Z,100829.09
2023-02-05T11:10:25.479Z,100875.84
2023-02-05T11:13:20.495Z,100820.66
2023-02-05T11:16:04.938Z,100847.09
2023-02-05T11:18:55.116Z,100843.94
2023-02-05T11:21:23.709Z,100901.91
2023-02-05T11:23:57.623Z,100914.19
2023-02-05T11:26:28.691Z,100919.56
2023-02-05T11:28:58.622Z,100913.88
2023-02-05T11:31:34.968Z,100882.16
2023-02-05T11:34:09.440Z,100914.00
2023-02-05T11:36:48.332Z,100850.84
2023-02-05T11:39:40.795Z,100918.06
2023-02-05T11:42:25.140Z,100917.75
2023-02-05T11:45:00.947Z,100852.88
2023-02-05T11:47:37.434Z,100903.25
2023-02-05T11:50:18.894Z,100863.03
2023-02-05T11:52:47.433Z,100827.88
2023-02-05T11:55:32.198Z,100921.97
2023-02-05T11:58:34.811Z,100919.84
2023-02-05T12:01:29.328Z,100942.66
2023-02-05T12:04:11.144Z,100937.09
2023-02-05T12:06:55.902Z,100944.47
2023-02-05T12:09:28.227Z,100941.44
2023-02-05T12:12:24.084Z,100954.47
2023-02-05T12:15:15.887Z,100941.66
2023-02-05T12:17:50.677Z,100930.34
2023-02-05T12:20:24.767Z,100929.34
2023-02-05T12:23:25.628Z,100917.97
2023-02-05T12:26:29.486Z,100913.53
2023-02-05T12:29:19.707Z,100926.38
2023-02-05T12:32:34.760Z,100924.66
2023-02-05T12:36:12.112Z,100952.53
2023-02-05T12:39:14.172Z,100918.63
2023-02-05T12:41:44.157Z,100958.16
2023-02-05T12:44:38.321Z,100973.94
2023-02-05T12:48:09.490Z,100952.34
2023-02-05T12:50:52.957Z,100950.97
2023-02-05T12:53:52.553Z,100963.34
2023-02-05T12:56:50.301Z,100941.84
2023-02-05T12:59:51.527Z,100963.44
2023-02-05T13:02:58.260Z,100930.38
2023-02-05T13:05:55.726Z,100941.25
2023-02-05T13:09:10.777Z,100897.53
2023-02-05T13:11:59.874Z,100876.78
2023-02-05T13:14:37.344Z,100936.22
2023-02-05T13:17:20.544Z,100928.16
2023-02-05T13:20:05.987Z,100908.88
2023-02-05T13:23:06.282Z,100914.38
2023-02-05T13:26:07.796Z,100919.69
2023-02-05T13:29:13.609Z,100890.03
2023-02-05T13:31:48.501Z,100884.59
2023-02-05T13:34:18.818Z,100876.94
2023-02-05T13:37:18.180Z,100890.03
2023-02-05T13:40:10.805Z,100885.34
2023-02-05T13:43:38.346Z,100891.75
2023-02-05T13:46:25.379Z,100889.06
2023-02-05T13:49:20.956Z,100906.00
2023-02-05T13:52:07.288Z,100906.69
2023-02-05T13:54:49.936Z,100916.09
2023-02-05T13:57:58.039Z,100923.06
2023-02-05T14:00:28.048Z,100811.28
2023-02-05T14:02:58.385Z,100873.59
2023-02-05T14:05:43.563Z,100946.59
2023-02-05T14:08:32.001Z,100953.66
2023-02-05T14:11:05.653Z,100897.41
2023-02-05T14:13:36.157Z,100952.50
2023-02-05T14:16:26.551Z,100975.75
2023-02-05T14:19:01.357Z,100999.00
2023-02-05T14:21:33.044Z,101009.38
2023-02-05T14:24:19.754Z,101012.91
2023-02-05T14:26:52.478Z,101011.56
2023-02-05T14:29:41.495Z,101028.06
2023-02-05T14:32:28.690Z,101045.38
2023-02-05T14:35:04.317Z,101048.91
2023-02-05T14:37:45.833Z,101042.72
2023-02-05T14:40:37.313Z,101055.72
2023-02-05T14:43:31.344Z,101062.94
2023-02-05T14:46:07.053Z,101043.09
2023-02-05T14:48:42.686Z,101040.44
2023-02-05T14:51:32.485Z,101043.00
2023-02-05T14:54:24.553Z,101005.25
2023-02-05T14:57:10.948Z,101001.81
2023-02-05T14:59:50.651Z,101048.31
2023-02-05T15:03:05.804Z,101054.19
2023-02-05T15:05:47.324Z,101006.28
2023-02-05T15:08:44.684Z,101055.28
2023-02-05T15:11:34.150Z,101046.66
2023-02-05T15:14:31.046Z,101048.53
2023-02-05T15:17:10.780Z,101045.22
2023-02-05T15:19:52.746Z,101046.03
2023-02-05T15:22:41.368Z,101043.53
2023-02-05T15:25:23.257Z,100912.28
2023-02-05T15:27:59.919Z,101057.38
2023-02-05T15:30:47.813Z,101012.75
2023-02-05T15:33:29.674Z,101011.16
2023-02-05T15:35:59.097Z,101012.19
2023-02-05T15:38:43.646Z,101065.59
2023-02-05T15:41:15.830Z,101063.06
2023-02-05T15:44:00.786Z,101063.28
2023-02-05T15:46:32.530Z,101010.78
2023-02-05T15:49:01.672Z,101067.47
2023-02-05T15:51:34.536Z,101010.78
2023-02-05T15:54:05.878Z,101009.97
2023-02-05T15:56:45.007Z,101055.47
2023-02-05T15:59:17.632Z,101052.09
2023-02-05T16:02:16.340Z,100990.78
2023-02-05T16:04:45.270Z,101021.03
2023-02-05T16:07:23.903Z,101083.00
2023-02-05T16:09:56.637Z,101077.88
2023-02-05T16:12:26.384Z,101054.75
2023-02-05T16:15:05.999Z,101004.81
2023-02-05T16:17:49.368Z,101018.75
2023-02-05T16:20:34.458Z,101078.88
2023-02-05T16:23:11.397Z,101057.38
2023-02-05T16:25:53.903Z,101082.28
2023-02-05T16:28:52.509Z,101091.72
2023-02-05T16:31:27.258Z,101094.38
2023-02-05T16:34:13.562Z,101091.81
2023-02-05T16:36:49.084Z,101096.34
2023-02-05T16:39:40.079Z,101075.56
2023-02-05T16:42:28.669Z,101038.69
2023-02-05T16:45:08.708Z,101096.50
2023-02-05T16:47:38.295Z,101050.03
2023-02-05T16:50:42.840Z,101122.50
2023-02-05T16:53:47.109Z,101113.75
2023-02-05T16:56:29.591Z,101126.78
2023-02-05T16:59:01.917Z,101102.75
2023-02-05T17:01:39.315Z,101114.91
2023-02-05T17:04:08.574Z,101065.03
2023-02-05T17:06:38.652Z,101127.84
2023-02-05T17:09:10.322Z,101112.34
2023-02-05T17:11:43.159Z,101118.47
2023-02-05T17:14:33.340Z,101071.13
2023-02-05T17:17:17.815Z,101135.75
2023-02-05T17:20:29.254Z,101130.66
2023-02-05T17:23:03.771Z,101082.44
2023-02-05T17:25:55.683Z,101085.84
2023-02-05T17:28:30.069Z,101123.72
2023-02-05T17:30:59.407Z,101142.66
2023-02-05T17:33:29.851Z,101090.31
2023-02-05T17:35:58.310Z,101147.16
2023-02-05T17:38:26.866Z,101156.69
2023-02-05T17:41:15.230Z,101154.13
2023-02-05T17:43:43.830Z,101161.78
2023-02-05T17:46:15.402Z,101127.44
2023-02-05T17:48:45.115Z,101166.19
2023-02-05T17:51:21.034Z,101111.19
2023-02-05T17:53:50.827Z,101161.06
2023-02-05T17:56:21.426Z,101110.41
2023-02-05T17:58:51.659Z,101168.03
2023-02-05T18:01:20.849Z,101151.81
2023-02-05T18:03:50.281Z,101171.66
2023-02-05T18:06:19.997Z,101191.50
2023-02-05T18:08:51.600Z,101136.47
2023-02-05T18:11:20.441Z,101190.59
2023-02-05T18:13:48.667Z,101200.19
2023-02-05T18:16:17.620Z,101196.75
2023-02-05T18:18:47.012Z,101196.69
2023-02-05T18:21:15.770Z,101206.25
2023-02-05T18:23:44.314Z,101208.00
2023-02-05T18:26:13.279Z,101192.44
2023-02-05T18:28:41.977Z,101210.59
2023-02-05T18:31:11.360Z,101209.78
2023-02-05T18:33:40.892Z,101217.47
2023-02-05T18:36:14.476Z,101187.38
2023-02-05T18:38:44.031Z,101231.28
2023-02-05T18:41:23.770Z,101212.31
2023-02-05T18:43:59.589Z,101169.25
2023-02-05T18:46:29.413Z,101173.63
2023-02-05T18:48:58.112Z,101160.66
2023-02-05T18:51:27.785Z,101215.00
2023-02-05T18:53:57.273Z,101210.63
2023-02-05T18:56:27.538Z,101224.41
2023-02-05T18:59:03.391Z,101244.31
2023-02-05T19:01:34.975Z,101251.28
2023-02-05T19:04:11.286Z,101250.47
2023-02-05T19:06:44.987Z,101235.78
2023-02-05T19:09:14.190Z,101218.53
2023-02-05T19:11:43.763Z,101258.22
2023-02-05T19:14:16.273Z,101239.22
2023-02-05T19:16:45.908Z,101245.25
2023-02-05T19:19:22.601Z,101252.13
2023-02-05T19:21:55.171Z,101242.63
2023-02-05T19:24:23.814Z,101262.47
2023-02-05T19:26:56.846Z,101217.56
2023-02-05T19:29:28.696Z,101246.91
2023-02-05T19:31:58.824Z,101184.06
2023-02-05T19:34:28.011Z,101251.16
2023-02-05T19:36:56.438Z,101252.03
2023-02-05T19:39:24.928Z,101252.88
2023-02-05T19:41:55.998Z,101201.19
2023-02-05T19:44:24.581Z,101246.81
2023-02-05T19:46:53.390Z,101237.31
2023-02-05T19:49:24.384Z,101244.31
2023-02-05T19:51:55.420Z,101249.38
2023-02-05T19:54:25.737Z,101208.88
2023-02-05T19:56:54.110Z,101256.38
2023-02-05T19:59:22.972Z,101244.19
2023-02-05T20:01:51.290Z,101254.59
2023-02-05T20:04:26.391Z,101245.09
2023-02-05T20:07:00.655Z,101258.91
2023-02-05T20:09:29.342Z,101216.75
2023-02-05T20:11:57.360Z,101268.50
2023-02-05T20:14:26.011Z,101224.59
2023-02-05T20:16:54.757Z,101275.41
2023-02-05T20:19:22.915Z,101271.09
2023-02-05T20:21:54.844Z,101263.28
2023-02-05T20:24:23.685Z,101263.25
2023-02-05T20:26:53.344Z,101174.50
2023-02-05T20:29:40.691Z,101251.97
2023-02-05T20:32:10.917Z,101247.72
2023-02-05T20:34:45.225Z,101215.00
2023-02-05T20:37:14.036Z,101268.41
2023-02-05T20:39:44.179Z,101278.81
2023-02-05T20:42:14.686Z,101222.78
2023-02-05T20:44:44.599Z,101229.72
2023-02-05T20:47:15.598Z,101279.75
2023-02-05T20:49:44.897Z,101285.00
2023-02-05T20:52:13.447Z,101279.78
2023-02-05T20:54:41.929Z,101290.22
2023-02-05T20:57:10.491Z,101285.00
2023-02-05T20:59:39.018Z,101302.34
2023-02-05T21:02:08.073Z,101286.75
2023-02-05T21:04:37.152Z,101300.50
2023-02-05T21:07:05.660Z,101310.06
2023-02-05T21:09:34.424Z,101318.78
2023-02-05T21:12:03.142Z,101304.94
2023-02-05T21:14:34.067Z,101309.25
2023-02-05T21:17:03.114Z,101320.53
2023-02-05T21:19:31.852Z,101306.66
2023-02-05T21:22:00.601Z,101316.16
2023-02-05T21:24:29.069Z,101325.69
2023-02-05T21:26:57.196Z,101328.31
2023-02-05T21:29:26.039Z,101323.13
2023-02-05T21:31:56.150Z,101314.50
2023-02-05T21:34:28.019Z,101330.09
2023-02-05T21:36:56.985Z,101327.50
2023-02-05T21:39:26.256Z,101334.38
2023-02-05T21:41:55.065Z,101322.28
2023-02-05T21:44:24.534Z,101336.09
2023-02-05T21:46:54.769Z,101338.69
2023-02-05T21:49:23.306Z,101346.50
2023-02-05T21:51:53.553Z,101349.09
2023-02-05T21:54:25.457Z,101349.94
2023-02-05T21:56:54.453Z,101360.38
2023-02-05T21:59:23.408Z,101332.84
2023-02-05T22:01:52.577Z,101296.53
2023-02-05T22:04:21.957Z,101356.00
2023-02-05T22:06:50.945Z,101362.03
2023-02-05T22:09:19.478Z,101360.28
2023-02-05T22:11:51.491Z,101362.88
2023-02-05T22:14:20.870Z,101371.53
2023-02-05T22:16:49.459Z,101375.84
2023-02-05T22:19:17.990Z,101323.22
2023-02-05T22:21:46.279Z,101378.47
2023-02-05T22:24:17.477Z,101376.72
2023-02-05T22:26:47.642Z,101324.06
2023-02-05T22:29:20.605Z,101332.75
2023-02-05T22:31:59.034Z,101375.03
2023-02-05T22:34:28.205Z,101381.91
2023-02-05T22:36:56.397Z,101377.63
2023-02-05T22:39:24.404Z,101374.03
2023-02-05T22:41:52.611Z,101337.03
2023-02-05T22:44:21.052Z,101374.06
2023-02-05T22:46:49.406Z,101369.75
2023-02-05T22:49:17.687Z,101329.34
2023-02-05T22:51:46.160Z,101371.59
2023-02-05T22:54:15.418Z,101319.81
2023-02-05T22:56:45.009Z,101374.22
2023-02-05T22:59:13.530Z,101372.59
2023-02-05T23:01:41.941Z,101370.78
2023-02-05T23:04:10.650Z,101313.00
2023-02-05T23:06:42.915Z,101371.59
2023-02-05T23:09:18.326Z,101323.38
2023-02-05T23:11:47.143Z,101330.25
2023-02-05T23:14:17.529Z,101372.56
2023-02-05T23:16:48.587Z,101380.34
2023-02-05T23:19:20.661Z,101383.00
2023-02-05T23:21:49.346Z,101373.56
2023-02-05T23:24:18.432Z,101398.69
2023-02-05T23:26:50.819Z,101392.59
2023-02-05T23:29:19.467Z,101340.00
2023-02-05T23:31:48.289Z,101407.25
2023-02-05T23:34:16.546Z,101408.16
2023-02-05T23:36:44.773Z,101400.34
2023-02-05T23:39:13.620Z,101392.59
2023-02-05T23:41:42.013Z,101406.47
2023-02-05T23:44:15.085Z,101405.63
2023-02-05T23:46:45.472Z,101397.84
2023-02-05T23:49:15.798Z,101385.81
2023-02-05T23:51:44.111Z,101397.81
2023-02-05T23:54:12.587Z,101410.03
2023-02-05T23:56:41.808Z,101363.44
2023-02-05T23:59:13.125Z,101416.09
